Time;durP1;ratioP1;P1;durP2;ratioP2;P2;SDS_P1;SDS_P2;PMS_P1;PMS_P2;Temp;Humidity;BMP_temperature;BMP_pressure;BME280_temperature;BME280_humidity;BME280_pressure;Samples;Min_cycle;Max_cycle;Signal;HPM_P1;HPM_P2
2023/08/01 00:01:07;;;;;;;9.55;4.30;;;;;;;;;;5051610;28;20475;-68
2023/08/01 00:03:52;;;;;;;9.48;3.97;;;;;;;;;;5050877;28;20428;-68
2023/08/01 00:06:37;;;;;;;9.20;3.65;;;;;;;;;;5045446;28;20044;-69
2023/08/01 00:09:23;;;;;;;7.03;2.97;;;;;;;;;;5038159;28;20029;-68
2023/08/01 00:12:08;;;;;;;7.68;3.15;;;;;;;;;;5045540;28;20040;-68
2023/08/01 00:14:53;;;;;;;5.00;3.17;;;;;;;;;;5053080;28;20040;-68
2023/08/01 00:17:38;;;;;;;10.95;3.40;;;;;;;;;;5050014;28;20062;-67
2023/08/01 00:20:24;;;;;;;6.20;3.30;;;;;;;;;;5041556;28;20587;-70
2023/08/01 00:23:09;;;;;;;7.80;3.50;;;;;;;;;;5029094;28;20029;-72
2023/08/01 00:25:54;;;;;;;7.82;3.45;;;;;;;;;;5052396;28;20041;-70
2023/08/01 00:28:39;;;;;;;6.13;3.55;;;;;;;;;;5053496;28;20102;-70
2023/08/01 00:31:25;;;;;;;4.90;3.13;;;;;;;;;;5053203;28;20494;-69
2023/08/01 00:34:10;;;;;;;6.97;2.90;;;;;;;;;;5052651;28;20601;-69
2023/08/01 00:36:55;;;;;;;5.90;3.75;;;;;;;;;;5051518;28;20028;-76
2023/08/01 00:39:40;;;;;;;5.53;3.30;;;;;;;;;;5052453;28;20125;-80
2023/08/01 00:42:25;;;;;;;5.28;2.85;;;;;;;;;;5050671;28;20378;-69
2023/08/01 00:45:11;;;;;;;7.80;3.38;;;;;;;;;;5044987;28;20028;-68
2023/08/01 00:47:56;;;;;;;7.57;3.38;;;;;;;;;;5044015;28;20037;-69
2023/08/01 00:50:41;;;;;;;8.30;3.33;;;;;;;;;;5046486;28;20028;-68
2023/08/01 00:53:27;;;;;;;9.45;3.53;;;;;;;;;;5051498;28;20037;-69
2023/08/01 00:56:13;;;;;;;5.80;3.00;;;;;;;;;;5050524;28;20087;-70
2023/08/01 00:58:58;;;;;;;5.35;3.40;;;;;;;;;;5053507;28;20064;-70
2023/08/01 01:01:43;;;;;;;4.13;2.72;;;;;;;;;;5052457;28;20021;-71
2023/08/01 01:04:28;;;;;;;7.07;3.80;;;;;;;;;;5041699;28;20056;-70
2023/08/01 01:07:16;;;;;;;6.13;3.80;;;;;;;;;;5044276;28;20059;-71
2023/08/01 01:10:01;;;;;;;5.10;2.80;;;;;;;;;;5037713;28;20043;-70
2023/08/01 01:12:47;;;;;;;7.30;3.55;;;;;;;;;;5045870;28;20131;-71
2023/08/01 01:15:32;;;;;;;6.72;3.75;;;;;;;;;;5043264;28;20391;-70
2023/08/01 01:18:18;;;;;;;5.55;3.13;;;;;;;;;;5042533;28;20037;-70
2023/08/01 01:21:03;;;;;;;8.27;3.88;;;;;;;;;;5045369;28;20027;-70
2023/08/01 01:23:48;;;;;;;7.95;3.45;;;;;;;;;;5044356;28;20033;-70
2023/08/01 01:26:34;;;;;;;8.02;3.78;;;;;;;;;;5044549;28;20040;-72
2023/08/01 01:29:20;;;;;;;9.07;3.97;;;;;;;;;;5050029;28;20531;-69
2023/08/01 01:32:06;;;;;;;6.70;3.45;;;;;;;;;;5052977;28;20479;-71
2023/08/01 01:34:51;;;;;;;6.28;3.50;;;;;;;;;;5049038;28;20553;-69
2023/08/01 01:37:36;;;;;;;6.65;3.60;;;;;;;;;;5040796;28;20040;-69
2023/08/01 01:40:21;;;;;;;8.20;3.88;;;;;;;;;;5051975;28;20111;-70
2023/08/01 01:43:07;;;;;;;6.57;4.07;;;;;;;;;;5052434;28;20540;-69
2023/08/01 01:45:52;;;;;;;9.05;4.65;;;;;;;;;;5052356;28;20036;-70
2023/08/01 01:48:37;;;;;;;8.32;3.97;;;;;;;;;;5037597;28;20541;-69
2023/08/01 01:51:22;;;;;;;9.68;4.10;;;;;;;;;;5047475;28;20087;-70
2023/08/01 01:54:08;;;;;;;5.90;3.63;;;;;;;;;;5043343;28;20040;-69
2023/08/01 01:56:53;;;;;;;8.38;3.25;;;;;;;;;;5054224;28;20032;-70
2023/08/01 01:59:38;;;;;;;8.13;3.42;;;;;;;;;;5052563;28;20028;-70
2023/08/01 02:02:23;;;;;;;9.60;3.92;;;;;;;;;;5053352;28;20036;-70
2023/08/01 02:05:09;;;;;;;6.82;3.42;;;;;;;;;;5040349;28;20033;-70
2023/08/01 02:07:54;;;;;;;6.05;3.50;;;;;;;;;;5049259;28;20480;-69
2023/08/01 02:10:39;;;;;;;12.05;3.75;;;;;;;;;;5049221;28;20024;-71
2023/08/01 02:13:26;;;;;;;10.07;3.28;;;;;;;;;;5037636;28;20045;-82
2023/08/01 02:16:11;;;;;;;7.75;4.28;;;;;;;;;;5041204;28;20035;-82
2023/08/01 02:18:56;;;;;;;6.82;3.22;;;;;;;;;;5044474;28;20043;-83
2023/08/01 02:21:41;;;;;;;6.47;3.65;;;;;;;;;;5051808;28;20055;-82
2023/08/01 02:24:26;;;;;;;6.85;3.45;;;;;;;;;;5044914;28;20070;-83
2023/08/01 02:27:12;;;;;;;6.32;3.30;;;;;;;;;;5047144;28;20117;-83
2023/08/01 02:29:57;;;;;;;8.18;3.47;;;;;;;;;;5050097;28;20028;-73
2023/08/01 02:32:42;;;;;;;7.68;3.78;;;;;;;;;;5050904;28;20044;-71
2023/08/01 02:35:28;;;;;;;6.18;3.67;;;;;;;;;;5040784;28;20068;-71
2023/08/01 02:38:13;;;;;;;7.25;3.75;;;;;;;;;;5053788;28;20131;-71
2023/08/01 02:40:58;;;;;;;5.90;3.60;;;;;;;;;;5054177;28;20554;-70
2023/08/01 02:43:43;;;;;;;6.60;3.15;;;;;;;;;;5052678;28;20078;-71
2023/08/01 02:46:29;;;;;;;10.13;3.38;;;;;;;;;;5036538;28;20041;-79
2023/08/01 02:49:14;;;;;;;5.68;3.63;;;;;;;;;;5052512;28;20054;-79
2023/08/01 02:52:00;;;;;;;9.00;3.90;;;;;;;;;;5054344;28;20045;-80
2023/08/01 02:54:45;;;;;;;6.60;3.47;;;;;;;;;;5055095;28;20078;-80
2023/08/01 02:57:30;;;;;;;10.07;6.13;;;;;;;;;;5053021;28;20064;-79
2023/08/01 03:00:17;;;;;;;9.05;3.70;;;;;;;;;;5051979;28;20032;-82
2023/08/01 03:03:03;;;;;;;8.90;3.95;;;;;;;;;;5048408;28;20064;-80
2023/08/01 03:05:48;;;;;;;6.65;3.78;;;;;;;;;;5053345;28;20033;-84
2023/08/01 03:08:33;;;;;;;7.85;3.40;;;;;;;;;;5051949;28;20135;-70
2023/08/01 03:11:19;;;;;;;6.80;3.63;;;;;;;;;;5037765;28;20040;-72
2023/08/01 03:14:04;;;;;;;6.75;3.83;;;;;;;;;;5038523;28;20059;-72
2023/08/01 03:16:49;;;;;;;5.03;3.35;;;;;;;;;;5044922;28;20028;-71
2023/08/01 03:19:34;;;;;;;7.57;3.38;;;;;;;;;;5046138;28;20445;-71
2023/08/01 03:22:20;;;;;;;8.18;4.50;;;;;;;;;;5041153;28;20126;-71
2023/08/01 03:25:07;;;;;;;8.68;3.80;;;;;;;;;;5037974;28;20109;-71
2023/08/01 03:27:54;;;;;;;10.75;4.03;;;;;;;;;;5049286;28;20039;-70
2023/08/01 03:30:39;;;;;;;11.13;4.35;;;;;;;;;;5040710;28;20687;-70
2023/08/01 03:33:24;;;;;;;6.55;3.97;;;;;;;;;;5052111;28;20119;-70
2023/08/01 03:36:09;;;;;;;6.13;3.55;;;;;;;;;;5058160;28;20020;-70
2023/08/01 03:38:55;;;;;;;7.43;3.50;;;;;;;;;;5044001;28;20040;-69
2023/08/01 03:41:40;;;;;;;6.65;4.10;;;;;;;;;;5047577;28;20037;-69
2023/08/01 03:44:25;;;;;;;8.75;3.42;;;;;;;;;;5048015;28;20090;-69
2023/08/01 03:47:10;;;;;;;7.50;3.83;;;;;;;;;;5050719;28;20170;-67
2023/08/01 03:49:56;;;;;;;8.88;3.15;;;;;;;;;;5047585;28;20060;-71
2023/08/01 03:52:41;;;;;;;6.40;3.45;;;;;;;;;;5053277;28;20024;-72
2023/08/01 03:55:26;;;;;;;7.32;3.88;;;;;;;;;;5053583;28;20041;-72
2023/08/01 03:58:11;;;;;;;7.88;3.60;;;;;;;;;;5050437;28;20032;-70
2023/08/01 04:00:57;;;;;;;7.55;3.70;;;;;;;;;;5039355;28;20502;-78
2023/08/01 04:03:42;;;;;;;6.03;3.35;;;;;;;;;;5042040;28;20028;-69
2023/08/01 04:06:27;;;;;;;7.63;3.63;;;;;;;;;;5034368;28;20025;-71
2023/08/01 04:09:12;;;;;;;11.27;3.65;;;;;;;;;;5050996;28;20111;-69
2023/08/01 04:11:58;;;;;;;6.85;3.10;;;;;;;;;;5052674;28;20134;-69
2023/08/01 04:14:43;;;;;;;6.25;2.75;;;;;;;;;;5046886;28;20024;-68
2023/08/01 04:17:29;;;;;;;5.63;3.00;;;;;;;;;;5049371;28;20043;-69
2023/08/01 04:20:14;;;;;;;5.60;3.15;;;;;;;;;;5040396;28;20044;-69
2023/08/01 04:23:00;;;;;;;5.38;3.17;;;;;;;;;;5052848;28;20036;-77
2023/08/01 04:25:45;;;;;;;7.10;3.25;;;;;;;;;;5046541;28;20499;-76
2023/08/01 04:28:30;;;;;;;8.23;3.10;;;;;;;;;;5050163;28;20036;-75
2023/08/01 04:31:15;;;;;;;7.97;3.05;;;;;;;;;;5049695;28;20041;-76
2023/08/01 04:34:00;;;;;;;7.05;3.03;;;;;;;;;;5038484;28;20487;-77
2023/08/01 04:36:46;;;;;;;5.63;2.85;;;;;;;;;;5050126;28;20032;-81
2023/08/01 04:39:31;;;;;;;8.88;3.42;;;;;;;;;;5038115;28;20033;-70
2023/08/01 04:42:16;;;;;;;6.45;3.58;;;;;;;;;;5049685;28;20425;-73
2023/08/01 04:45:03;;;;;;;9.93;3.42;;;;;;;;;;5040907;28;20073;-71
2023/08/01 04:47:48;;;;;;;5.95;2.65;;;;;;;;;;5039637;28;20653;-70
2023/08/01 04:50:33;;;;;;;6.65;2.95;;;;;;;;;;5049513;28;20028;-69
2023/08/01 04:53:18;;;;;;;6.28;3.30;;;;;;;;;;5047226;28;20028;-72
2023/08/01 04:56:04;;;;;;;7.18;3.75;;;;;;;;;;5050789;28;20470;-84
2023/08/01 04:58:50;;;;;;;8.57;3.25;;;;;;;;;;5051408;28;20032;-81
2023/08/01 05:01:35;;;;;;;6.70;3.10;;;;;;;;;;5036487;28;20119;-81
2023/08/01 05:04:20;;;;;;;8.75;2.95;;;;;;;;;;5050990;28;20511;-80
2023/08/01 05:07:06;;;;;;;7.13;3.00;;;;;;;;;;5046674;28;20106;-81
2023/08/01 05:09:51;;;;;;;7.43;2.78;;;;;;;;;;5049306;28;20029;-81
2023/08/01 05:12:36;;;;;;;6.30;3.13;;;;;;;;;;5056097;28;20089;-80
2023/08/01 05:15:21;;;;;;;11.70;3.88;;;;;;;;;;5044740;28;20020;-71
2023/08/01 05:18:06;;;;;;;5.78;3.17;;;;;;;;;;5051853;28;20052;-70
2023/08/01 05:20:52;;;;;;;6.93;3.97;;;;;;;;;;5056532;28;20399;-73
2023/08/01 05:23:37;;;;;;;8.65;3.28;;;;;;;;;;5049068;28;20052;-70
2023/08/01 05:26:22;;;;;;;8.27;3.70;;;;;;;;;;5053045;28;20032;-72
2023/08/01 05:29:07;;;;;;;8.25;4.25;;;;;;;;;;5047586;28;20313;-71
2023/08/01 05:31:53;;;;;;;13.73;4.38;;;;;;;;;;5050223;28;20479;-70
2023/08/01 05:34:38;;;;;;;7.13;3.60;;;;;;;;;;5050715;28;20562;-71
2023/08/01 05:37:24;;;;;;;10.43;4.30;;;;;;;;;;5036220;28;20074;-69
2023/08/01 05:40:09;;;;;;;7.82;3.50;;;;;;;;;;5036903;28;20324;-70
2023/08/01 05:42:55;;;;;;;8.77;4.45;;;;;;;;;;5046768;28;20115;-72
2023/08/01 05:45:40;;;;;;;7.60;3.75;;;;;;;;;;5057110;28;20123;-71
2023/08/01 05:48:25;;;;;;;7.93;3.70;;;;;;;;;;5049803;28;20032;-71
2023/08/01 05:51:10;;;;;;;14.30;4.18;;;;;;;;;;5034694;28;20365;-76
2023/08/01 05:53:56;;;;;;;7.45;3.60;;;;;;;;;;5053415;28;20062;-71
2023/08/01 05:56:41;;;;;;;8.95;3.92;;;;;;;;;;5055853;28;20024;-73
2023/08/01 05:59:26;;;;;;;6.78;3.70;;;;;;;;;;5054591;28;20094;-73
2023/08/01 06:02:12;;;;;;;10.05;4.63;;;;;;;;;;5047108;28;20056;-73
2023/08/01 06:04:57;;;;;;;7.82;3.78;;;;;;;;;;5046801;28;20442;-73
2023/08/01 06:07:42;;;;;;;9.82;4.15;;;;;;;;;;5040608;28;20037;-73
2023/08/01 06:10:27;;;;;;;10.30;4.70;;;;;;;;;;5051839;28;20051;-73
2023/08/01 06:13:13;;;;;;;6.38;3.47;;;;;;;;;;5050001;28;20119;-74
2023/08/01 06:15:58;;;;;;;6.90;3.58;;;;;;;;;;5050356;28;20476;-76
2023/08/01 06:18:43;;;;;;;7.15;3.83;;;;;;;;;;5036732;28;20098;-80
2023/08/01 06:21:28;;;;;;;7.13;3.80;;;;;;;;;;5050952;28;20100;-80
2023/08/01 06:24:13;;;;;;;6.65;3.45;;;;;;;;;;5048111;28;20497;-79
2023/08/01 06:26:59;;;;;;;10.88;5.18;;;;;;;;;;5044510;28;20031;-70
2023/08/01 06:29:44;;;;;;;7.22;3.85;;;;;;;;;;5046600;28;20028;-70
2023/08/01 06:32:29;;;;;;;10.85;4.35;;;;;;;;;;5052260;28;20483;-77
2023/08/01 06:35:14;;;;;;;7.18;3.92;;;;;;;;;;5047399;28;20033;-77
2023/08/01 06:38:00;;;;;;;7.43;3.75;;;;;;;;;;5048502;28;20024;-79
2023/08/01 06:40:45;;;;;;;10.10;5.18;;;;;;;;;;5050436;28;20044;-80
2023/08/01 06:43:30;;;;;;;7.32;4.43;;;;;;;;;;5047252;28;20084;-79
2023/08/01 06:46:15;;;;;;;8.38;4.53;;;;;;;;;;5052232;28;20379;-80
2023/08/01 06:49:01;;;;;;;14.35;5.85;;;;;;;;;;5050161;28;20036;-77
2023/08/01 06:51:47;;;;;;;12.05;4.82;;;;;;;;;;5048687;28;20477;-79
2023/08/01 06:54:32;;;;;;;9.20;4.68;;;;;;;;;;5045903;28;20383;-78
2023/08/01 06:57:17;;;;;;;10.73;5.53;;;;;;;;;;5050926;28;20028;-78
2023/08/01 07:00:03;;;;;;;9.05;4.93;;;;;;;;;;5049661;28;20401;-83
2023/08/01 07:02:48;;;;;;;11.43;5.82;;;;;;;;;;5053775;28;20028;-79
2023/08/01 07:05:33;;;;;;;10.55;5.55;;;;;;;;;;5051905;28;20082;-72
2023/08/01 07:08:21;;;;;;;11.05;4.90;;;;;;;;;;5054171;28;20074;-79
2023/08/01 07:11:06;;;;;;;14.65;6.43;;;;;;;;;;5051334;28;20518;-76
2023/08/01 07:13:51;;;;;;;10.80;5.15;;;;;;;;;;5051959;28;20032;-73
2023/08/01 07:16:36;;;;;;;8.25;5.22;;;;;;;;;;5053529;28;20399;-74
2023/08/01 07:19:22;;;;;;;12.52;5.95;;;;;;;;;;5044985;28;20029;-75
2023/08/01 07:22:07;;;;;;;9.68;5.85;;;;;;;;;;5046025;28;20020;-82
2023/08/01 07:24:55;;;;;;;9.20;5.18;;;;;;;;;;5039820;28;20036;-77
2023/08/01 07:27:41;;;;;;;10.00;5.40;;;;;;;;;;5051710;28;20455;-79
2023/08/01 07:30:26;;;;;;;11.38;6.45;;;;;;;;;;5039379;28;20043;-80
2023/08/01 07:33:11;;;;;;;9.32;5.88;;;;;;;;;;5054327;28;20506;-77
2023/08/01 07:35:57;;;;;;;8.70;4.35;;;;;;;;;;5037482;28;20051;-79
2023/08/01 07:38:42;;;;;;;13.23;5.65;;;;;;;;;;5049908;28;20032;-79
2023/08/01 07:41:27;;;;;;;9.18;4.93;;;;;;;;;;5034860;28;20029;-71
2023/08/01 07:44:12;;;;;;;9.95;4.97;;;;;;;;;;5052341;28;20115;-75
2023/08/01 07:46:58;;;;;;;8.75;4.80;;;;;;;;;;5050533;28;20033;-75
2023/08/01 07:49:43;;;;;;;14.10;4.72;;;;;;;;;;5049335;28;20463;-78
2023/08/01 07:52:28;;;;;;;9.82;5.22;;;;;;;;;;5046953;28;20028;-77
2023/08/01 07:55:14;;;;;;;8.35;4.80;;;;;;;;;;5035639;28;20030;-75
2023/08/01 07:57:59;;;;;;;9.88;4.70;;;;;;;;;;5045128;28;20032;-77
2023/08/01 08:00:44;;;;;;;7.93;4.13;;;;;;;;;;5047370;28;20036;-72
2023/08/01 08:03:29;;;;;;;6.40;3.75;;;;;;;;;;5050896;28;20083;-80
2023/08/01 08:06:15;;;;;;;10.40;4.65;;;;;;;;;;5052857;28;20021;-77
2023/08/01 08:09:00;;;;;;;7.25;3.65;;;;;;;;;;5041013;28;20395;-77
2023/08/01 08:11:45;;;;;;;8.10;3.92;;;;;;;;;;5050609;28;20041;-76
2023/08/01 08:14:30;;;;;;;10.88;4.05;;;;;;;;;;5050152;28;20387;-80
2023/08/01 08:17:16;;;;;;;7.35;4.30;;;;;;;;;;5055247;28;20024;-71
2023/08/01 08:20:01;;;;;;;9.18;4.07;;;;;;;;;;5049204;28;20436;-73
2023/08/01 08:22:46;;;;;;;5.00;2.80;;;;;;;;;;5034928;28;20044;-72
2023/08/01 08:25:31;;;;;;;5.63;2.92;;;;;;;;;;5049199;28;20464;-70
2023/08/01 08:28:26;;;;;;;6.10;2.90;;;;;;;;;;5048738;28;20434;-72
2023/08/01 08:31:12;;;;;;;4.28;2.88;;;;;;;;;;5045897;28;20502;-72
2023/08/01 08:33:57;;;;;;;5.22;2.65;;;;;;;;;;5052851;28;20142;-73
2023/08/01 08:36:42;;;;;;;6.70;3.45;;;;;;;;;;5036322;28;20039;-77
2023/08/01 08:39:28;;;;;;;6.88;3.25;;;;;;;;;;5056223;28;20066;-72
2023/08/01 08:42:13;;;;;;;5.32;3.60;;;;;;;;;;5052619;28;20108;-70
2023/08/01 08:45:00;;;;;;;7.15;3.13;;;;;;;;;;5032707;28;20550;-71
2023/08/01 08:47:48;;;;;;;7.07;3.67;;;;;;;;;;5062878;28;20075;-71
2023/08/01 08:50:35;;;;;;;5.10;3.13;;;;;;;;;;5048621;28;20059;-72
2023/08/01 08:53:21;;;;;;;3.95;2.60;;;;;;;;;;5063082;28;20039;-71
2023/08/01 08:56:08;;;;;;;4.28;2.58;;;;;;;;;;5050419;28;20113;-72
2023/08/01 08:58:53;;;;;;;6.88;3.00;;;;;;;;;;5055378;28;20426;-71
2023/08/01 09:01:39;;;;;;;3.70;2.88;;;;;;;;;;5048999;28;20048;-69
2023/08/01 09:04:24;;;;;;;5.10;2.78;;;;;;;;;;5048771;28;20027;-70
2023/08/01 09:07:11;;;;;;;5.00;2.83;;;;;;;;;;5051147;28;20020;-71
2023/08/01 09:09:56;;;;;;;5.25;2.78;;;;;;;;;;5051865;28;20050;-70
2023/08/01 09:12:41;;;;;;;4.57;2.80;;;;;;;;;;5052762;28;20567;-79
2023/08/01 09:15:27;;;;;;;4.35;2.60;;;;;;;;;;5060994;28;20123;-68
2023/08/01 09:18:12;;;;;;;8.70;2.95;;;;;;;;;;5055540;28;20039;-69
2023/08/01 09:21:02;;;;;;;5.65;2.88;;;;;;;;;;5049122;28;20148;-70
2023/08/01 09:23:47;;;;;;;;;;;;;;;;;;5056255;28;20040;-69
2023/08/01 09:26:32;;;;;;;5.85;2.40;;;;;;;;;;5043677;28;19923;-71
2023/08/01 09:29:18;;;;;;;4.20;2.28;;;;;;;;;;5052444;28;20531;-69
2023/08/01 09:32:11;;;;;;;4.13;2.28;;;;;;;;;;5053484;28;20420;-69
2023/08/01 09:35:00;;;;;;;3.13;1.92;;;;;;;;;;5053160;28;20093;-72
2023/08/01 09:37:45;;;;;;;10.38;2.40;;;;;;;;;;5051078;28;20067;-71
2023/08/01 09:40:37;;;;;;;3.63;2.15;;;;;;;;;;5054743;28;20081;-73
2023/08/01 09:43:22;;;;;;;4.75;1.50;;;;;;;;;;5050191;28;20430;-70
2023/08/01 09:46:07;;;;;;;3.78;1.73;;;;;;;;;;5050910;28;20040;-73
2023/08/01 09:48:52;;;;;;;1.92;1.65;;;;;;;;;;5049694;28;20046;-73
2023/08/01 09:51:48;;;;;;;3.05;1.50;;;;;;;;;;5050249;28;20475;-70
2023/08/01 09:54:33;;;;;;;2.05;1.25;;;;;;;;;;5040849;28;20067;-70
2023/08/01 09:57:20;;;;;;;3.28;1.60;;;;;;;;;;5051546;28;20048;-70
2023/08/01 10:00:06;;;;;;;1.75;1.17;;;;;;;;;;5053179;28;20115;-75
2023/08/01 10:02:53;;;;;;;2.33;1.33;;;;;;;;;;5062189;28;20075;-70
2023/08/01 10:05:38;;;;;;;3.67;1.02;;;;;;;;;;5053038;28;20032;-72
2023/08/01 10:08:24;;;;;;;3.75;1.23;;;;;;;;;;5057404;28;20024;-77
2023/08/01 10:11:09;;;;;;;1.20;0.88;;;;;;;;;;5051742;28;20372;-76
2023/08/01 10:13:55;;;;;;;1.83;0.88;;;;;;;;;;5048875;28;20041;-73
2023/08/01 10:16:42;;;;;;;0.82;0.70;;;;;;;;;;5054009;28;20031;-75
2023/08/01 10:19:27;;;;;;;1.27;0.80;;;;;;;;;;5054654;28;20045;-75
2023/08/01 10:22:13;;;;;;;3.20;0.98;;;;;;;;;;5049898;28;20487;-77
2023/08/01 10:24:58;;;;;;;4.28;1.20;;;;;;;;;;5051723;28;20032;-77
2023/08/01 10:27:43;;;;;;;3.05;1.52;;;;;;;;;;5034883;28;20071;-74
2023/08/01 10:30:29;;;;;;;1.27;0.90;;;;;;;;;;5053199;28;20024;-68
2023/08/01 10:33:15;;;;;;;1.27;0.90;;;;;;;;;;5035299;28;20507;-71
2023/08/01 10:36:00;;;;;;;0.93;0.88;;;;;;;;;;5054581;28;20037;-70
2023/08/01 10:38:49;;;;;;;0.70;0.70;;;;;;;;;;5052507;28;20028;-69
2023/08/01 10:41:35;;;;;;;0.93;0.50;;;;;;;;;;5052657;28;20032;-70
2023/08/01 10:44:20;;;;;;;1.65;1.08;;;;;;;;;;5055583;28;20024;-72
2023/08/01 10:47:05;;;;;;;13.48;1.50;;;;;;;;;;5027605;28;20593;-75
2023/08/01 10:49:50;;;;;;;1.50;1.00;;;;;;;;;;5042059;28;20056;-76
2023/08/01 10:52:36;;;;;;;2.92;0.85;;;;;;;;;;5050921;28;20481;-77
2023/08/01 10:55:21;;;;;;;0.98;0.77;;;;;;;;;;5044189;28;20070;-75
2023/08/01 10:58:06;;;;;;;1.13;0.90;;;;;;;;;;5053273;28;20119;-76
2023/08/01 11:00:57;;;;;;;1.63;1.00;;;;;;;;;;5051554;28;20139;-78
2023/08/01 11:03:44;;;;;;;1.25;1.00;;;;;;;;;;5049642;28;20482;-76
2023/08/01 11:06:29;;;;;;;3.38;0.88;;;;;;;;;;5049939;28;20115;-69
2023/08/01 11:09:24;;;;;;;1.48;1.00;;;;;;;;;;5051483;28;20155;-70
2023/08/01 11:12:10;;;;;;;2.17;1.00;;;;;;;;;;5047048;28;20716;-72
2023/08/01 11:14:59;;;;;;;0.80;0.70;;;;;;;;;;5046028;28;20498;-70
2023/08/01 11:17:51;;;;;;;1.50;0.90;;;;;;;;;;5063299;28;20139;-69
2023/08/01 11:20:38;;;;;;;1.30;0.82;;;;;;;;;;5062962;28;20068;-69
2023/08/01 11:23:32;;;;;;;2.60;0.93;;;;;;;;;;5049832;28;20163;-72
2023/08/01 11:26:17;;;;;;;3.20;1.00;;;;;;;;;;5050352;28;20048;-72
2023/08/01 11:29:03;;;;;;;1.27;1.10;;;;;;;;;;5030199;28;20108;-71
2023/08/01 11:31:52;;;;;;;1.55;1.13;;;;;;;;;;5029964;28;20512;-68
2023/08/01 11:34:43;;;;;;;1.40;1.05;;;;;;;;;;5048769;28;20095;-70
2023/08/01 11:37:29;;;;;;;2.38;1.13;;;;;;;;;;5048040;28;20166;-70
2023/08/01 11:40:14;;;;;;;1.58;1.02;;;;;;;;;;5052545;28;20112;-71
2023/08/01 11:42:59;;;;;;;3.55;1.00;;;;;;;;;;5052004;28;20081;-69
2023/08/01 11:45:54;;;;;;;2.35;1.23;;;;;;;;;;5052389;28;20035;-69
2023/08/01 11:48:44;;;;;;;3.67;1.33;;;;;;;;;;5051833;28;20075;-70
2023/08/01 11:51:30;;;;;;;2.35;1.58;;;;;;;;;;5034705;28;20136;-69
2023/08/01 11:54:15;;;;;;;1.38;1.20;;;;;;;;;;5049689;28;20017;-70
2023/08/01 11:57:00;;;;;;;2.67;1.30;;;;;;;;;;5049725;28;20050;-68
2023/08/01 11:59:49;;;;;;;1.42;0.93;;;;;;;;;;5052747;28;20025;-87
2023/08/01 12:02:35;;;;;;;1.90;1.00;;;;;;;;;;5052045;28;20428;-73
2023/08/01 12:05:21;;;;;;;1.67;1.10;;;;;;;;;;5046026;28;20035;-71
2023/08/01 12:08:13;;;;;;;1.45;1.20;;;;;;;;;;5044736;28;20450;-69
2023/08/01 12:10:58;;;;;;;2.55;1.20;;;;;;;;;;5046001;28;20087;-67
2023/08/01 12:13:44;;;;;;;2.88;1.08;;;;;;;;;;5043499;28;20028;-70
2023/08/01 12:16:29;;;;;;;3.15;1.35;;;;;;;;;;5051198;28;20035;-73
2023/08/01 12:19:19;;;;;;;1.90;1.38;;;;;;;;;;5046067;28;20025;-78
2023/08/01 12:22:04;;;;;;;2.30;1.20;;;;;;;;;;5061207;28;20066;-84
2023/08/01 12:24:49;;;;;;;1.90;1.15;;;;;;;;;;5058201;28;20071;-86
2023/08/01 12:27:34;;;;;;;2.67;1.38;;;;;;;;;;5040718;28;20040;-85
2023/08/01 12:30:20;;;;;;;3.28;1.17;;;;;;;;;;5045984;28;20021;-83
2023/08/01 12:33:05;;;;;;;2.83;1.02;;;;;;;;;;5048337;28;20033;-73
2023/08/01 12:35:50;;;;;;;3.97;1.10;;;;;;;;;;5047887;28;20471;-69
2023/08/01 12:38:35;;;;;;;2.35;1.20;;;;;;;;;;5052069;28;20032;-76
2023/08/01 12:41:20;;;;;;;3.40;1.40;;;;;;;;;;5051067;28;20483;-74
2023/08/01 12:44:06;;;;;;;2.42;1.40;;;;;;;;;;5056330;28;20040;-78
2023/08/01 12:46:51;;;;;;;3.85;1.02;;;;;;;;;;5034100;28;20664;-73
2023/08/01 12:49:36;;;;;;;3.47;1.27;;;;;;;;;;5035572;28;20414;-74
2023/08/01 12:52:23;;;;;;;2.15;1.20;;;;;;;;;;5050156;28;20024;-73
2023/08/01 12:55:08;;;;;;;1.48;1.10;;;;;;;;;;5052132;28;20425;-75
2023/08/01 12:57:53;;;;;;;1.50;1.38;;;;;;;;;;5043139;28;20033;-66
2023/08/01 13:00:39;;;;;;;3.05;1.63;;;;;;;;;;5052960;28;20051;-72
2023/08/01 13:03:25;;;;;;;2.75;1.60;;;;;;;;;;5040248;28;20032;-69
2023/08/01 13:06:12;;;;;;;4.32;2.17;;;;;;;;;;5050004;28;20090;-68
2023/08/01 13:08:58;;;;;;;1.67;1.27;;;;;;;;;;5050959;28;20040;-67
2023/08/01 13:11:43;;;;;;;2.17;1.45;;;;;;;;;;5046855;28;20036;-69
2023/08/01 13:14:29;;;;;;;1.38;1.27;;;;;;;;;;5033738;28;20111;-69
2023/08/01 13:17:14;;;;;;;1.55;1.10;;;;;;;;;;5049482;28;20061;-71
2023/08/01 13:19:59;;;;;;;2.95;1.30;;;;;;;;;;5043817;28;20502;-74
2023/08/01 13:22:49;;;;;;;5.90;1.70;;;;;;;;;;5046284;28;20037;-71
2023/08/01 13:25:34;;;;;;;5.45;1.65;;;;;;;;;;5053843;28;20083;-71
2023/08/01 13:28:20;;;;;;;2.92;1.30;;;;;;;;;;5055137;28;20383;-71
2023/08/01 13:31:05;;;;;;;2.47;1.10;;;;;;;;;;5041662;28;20032;-70
2023/08/01 13:33:51;;;;;;;2.63;1.35;;;;;;;;;;5043788;28;20550;-70
2023/08/01 13:36:36;;;;;;;1.42;1.20;;;;;;;;;;5053491;28;20361;-70
2023/08/01 13:39:21;;;;;;;2.78;1.45;;;;;;;;;;5044548;28;20021;-69
2023/08/01 13:42:07;;;;;;;3.05;1.52;;;;;;;;;;5058079;28;20040;-70
2023/08/01 13:44:53;;;;;;;4.22;1.52;;;;;;;;;;5050863;28;20043;-71
2023/08/01 13:47:39;;;;;;;2.45;1.10;;;;;;;;;;5066894;28;20088;-69
2023/08/01 13:50:25;;;;;;;1.83;1.40;;;;;;;;;;5053114;28;20024;-81
2023/08/01 13:53:13;;;;;;;4.35;1.77;;;;;;;;;;5034165;28;20039;-77
2023/08/01 13:55:59;;;;;;;2.10;1.20;;;;;;;;;;5046291;28;20178;-74
2023/08/01 13:58:44;;;;;;;3.05;1.10;;;;;;;;;;5052971;28;20025;-76
2023/08/01 14:01:29;;;;;;;3.03;1.63;;;;;;;;;;5055647;28;20032;-73
2023/08/01 14:04:14;;;;;;;1.88;1.33;;;;;;;;;;5046793;28;20029;-75
2023/08/01 14:07:00;;;;;;;2.78;1.67;;;;;;;;;;5043383;28;20130;-69
2023/08/01 14:09:45;;;;;;;3.08;1.48;;;;;;;;;;5045523;28;20480;-69
2023/08/01 14:12:30;;;;;;;3.67;1.45;;;;;;;;;;5048061;28;20183;-73
2023/08/01 14:15:15;;;;;;;5.03;1.48;;;;;;;;;;5041561;28;20111;-73
2023/08/01 14:18:00;;;;;;;1.77;1.23;;;;;;;;;;5050293;28;20594;-75
2023/08/01 14:20:46;;;;;;;2.00;1.10;;;;;;;;;;5052886;28;20036;-72
2023/08/01 14:23:31;;;;;;;2.17;1.10;;;;;;;;;;5047128;28;20028;-73
2023/08/01 14:26:17;;;;;;;1.92;1.15;;;;;;;;;;5037645;28;20028;-70
2023/08/01 14:29:02;;;;;;;2.80;1.40;;;;;;;;;;5039275;28;20119;-76
2023/08/01 14:31:48;;;;;;;4.03;1.40;;;;;;;;;;5049111;28;20037;-76
2023/08/01 14:34:33;;;;;;;2.70;1.35;;;;;;;;;;5048832;28;20033;-75
2023/08/01 14:37:18;;;;;;;3.20;1.40;;;;;;;;;;5045831;28;20017;-74
2023/08/01 14:40:04;;;;;;;2.15;1.40;;;;;;;;;;5041972;28;20502;-74
2023/08/01 14:42:49;;;;;;;2.78;1.27;;;;;;;;;;5055717;28;20098;-74
2023/08/01 14:45:36;;;;;;;1.38;1.10;;;;;;;;;;5053115;28;20475;-71
2023/08/01 14:48:22;;;;;;;3.80;1.40;;;;;;;;;;5052516;28;20033;-67
2023/08/01 14:51:07;;;;;;;2.92;1.30;;;;;;;;;;5055427;28;20048;-68
2023/08/01 14:53:52;;;;;;;3.03;1.30;;;;;;;;;;5052696;28;20036;-67
2023/08/01 14:56:38;;;;;;;3.63;1.33;;;;;;;;;;5040731;28;20063;-67
2023/08/01 14:59:23;;;;;;;2.08;1.10;;;;;;;;;;5047807;28;20075;-69
2023/08/01 15:02:08;;;;;;;3.25;1.38;;;;;;;;;;5052783;28;20095;-69
2023/08/01 15:04:57;;;;;;;1.70;1.33;;;;;;;;;;5052668;28;20032;-74
2023/08/01 15:07:42;;;;;;;2.83;1.50;;;;;;;;;;5053969;28;20028;-72
2023/08/01 15:10:27;;;;;;;4.18;1.52;;;;;;;;;;5048066;28;20033;-76
2023/08/01 15:13:13;;;;;;;2.45;1.52;;;;;;;;;;5045351;28;20041;-73
2023/08/01 15:15:58;;;;;;;1.98;1.25;;;;;;;;;;5039271;28;20032;-73
2023/08/01 15:18:44;;;;;;;5.50;1.52;;;;;;;;;;5046491;28;20028;-73
2023/08/01 15:21:29;;;;;;;1.83;1.40;;;;;;;;;;5041924;28;20307;-71
2023/08/01 15:24:14;;;;;;;2.13;1.20;;;;;;;;;;5048772;28;20101;-73
2023/08/01 15:27:00;;;;;;;2.40;1.20;;;;;;;;;;5043208;28;20037;-72
2023/08/01 15:29:48;;;;;;;2.25;1.73;;;;;;;;;;5053601;28;20074;-72
2023/08/01 15:32:34;;;;;;;2.15;1.23;;;;;;;;;;5053858;28;20036;-73
2023/08/01 15:35:19;;;;;;;2.13;1.30;;;;;;;;;;5054126;28;20035;-72
2023/08/01 15:38:04;;;;;;;2.03;1.35;;;;;;;;;;5054330;28;20418;-72
2023/08/01 15:40:52;;;;;;;1.30;1.20;;;;;;;;;;5035979;28;20035;-72
2023/08/01 15:43:38;;;;;;;3.42;1.40;;;;;;;;;;5053372;28;20056;-73
2023/08/01 15:46:23;;;;;;;2.30;1.33;;;;;;;;;;5052152;28;20024;-72
2023/08/01 15:49:09;;;;;;;2.05;1.20;;;;;;;;;;5043164;28;20264;-71
2023/08/01 15:51:54;;;;;;;5.70;1.40;;;;;;;;;;5052073;28;20120;-72
2023/08/01 15:54:39;;;;;;;4.68;1.58;;;;;;;;;;5051497;28;20502;-71
2023/08/01 15:57:24;;;;;;;1.83;1.33;;;;;;;;;;5049006;28;20044;-75
2023/08/01 16:00:11;;;;;;;2.72;1.60;;;;;;;;;;5055054;28;20119;-70
2023/08/01 16:02:56;;;;;;;4.07;1.95;;;;;;;;;;5049375;28;20491;-71
2023/08/01 16:05:42;;;;;;;1.60;1.20;;;;;;;;;;5051036;28;20042;-71
2023/08/01 16:08:27;;;;;;;2.15;1.35;;;;;;;;;;5045157;28;20036;-72
2023/08/01 16:11:13;;;;;;;2.22;1.40;;;;;;;;;;5045001;28;20082;-72
2023/08/01 16:13:58;;;;;;;3.38;1.52;;;;;;;;;;5042091;28;20087;-71
2023/08/01 16:16:44;;;;;;;2.53;1.50;;;;;;;;;;5052577;28;20124;-76
2023/08/01 16:19:29;;;;;;;2.08;1.58;;;;;;;;;;5052643;28;20028;-76
2023/08/01 16:22:14;;;;;;;3.67;1.67;;;;;;;;;;5041641;28;20036;-74
2023/08/01 16:24:59;;;;;;;3.22;1.38;;;;;;;;;;5052679;28;20040;-75
2023/08/01 16:27:44;;;;;;;1.48;1.27;;;;;;;;;;5051112;28;20448;-76
2023/08/01 16:30:30;;;;;;;4.68;1.42;;;;;;;;;;5026338;28;20507;-65
2023/08/01 16:33:17;;;;;;;2.03;1.30;;;;;;;;;;5031859;28;20123;-65